createdAt,value
2018-03-01T00:00:30.363Z,6.97
2018-03-01T00:02:57.946Z,7.37
2018-03-01T00:05:25.530Z,7.20
2018-03-01T00:07:53.113Z,6.50
2018-03-01T00:10:20.665Z,6.03
2018-03-01T00:12:48.224Z,6.60
2018-03-01T00:15:16.111Z,9.10
2018-03-01T00:17:44.472Z,6.97
2018-03-01T00:20:12.789Z,6.33
2018-03-01T00:22:40.367Z,7.07
2018-03-01T00:25:08.786Z,8.05
2018-03-01T00:27:36.374Z,7.90
2018-03-01T00:30:04.697Z,7.78
2018-03-01T00:32:32.277Z,6.85
2018-03-01T00:34:59.842Z,7.80
2018-03-01T00:37:28.156Z,7.47
2018-03-01T00:39:55.735Z,6.33
2018-03-01T00:42:24.064Z,8.20
2018-03-01T00:44:51.624Z,8.17
2018-03-01T00:47:19.963Z,7.10
2018-03-01T00:49:47.529Z,7.07
2018-03-01T00:52:15.870Z,7.50
2018-03-01T00:54:43.477Z,7.55
2018-03-01T00:57:11.045Z,7.60
2018-03-01T00:59:38.633Z,6.57
2018-03-01T01:02:06.183Z,6.77
2018-03-01T01:04:33.773Z,8.02
2018-03-01T01:07:01.326Z,7.43
2018-03-01T01:09:28.893Z,7.12
2018-03-01T01:11:56.470Z,8.30
2018-03-01T01:14:24.020Z,8.03
2018-03-01T01:16:52.344Z,8.20
2018-03-01T01:19:19.906Z,8.05
2018-03-01T01:21:48.270Z,7.60
2018-03-01T01:24:16.063Z,8.23
2018-03-01T01:26:43.635Z,7.03
2018-03-01T01:29:11.198Z,7.50
2018-03-01T01:31:38.769Z,7.37
2018-03-01T01:34:07.103Z,7.95
2018-03-01T01:36:34.671Z,7.30
2018-03-01T01:39:02.225Z,7.30
2018-03-01T01:41:30.589Z,6.60
2018-03-01T01:43:58.900Z,6.87
2018-03-01T01:46:26.449Z,7.73
2018-03-01T01:48:54.017Z,7.30
2018-03-01T01:51:21.570Z,7.10
2018-03-01T01:53:49.142Z,7.60
2018-03-01T01:56:17.480Z,8.57
2018-03-01T01:58:45.049Z,6.62
2018-03-01T02:01:13.369Z,7.83
2018-03-01T02:03:40.969Z,7.53
2018-03-01T02:06:09.284Z,7.50
2018-03-01T02:08:38.248Z,7.43
2018-03-01T02:11:05.809Z,6.90
2018-03-01T02:13:33.401Z,7.30
2018-03-01T02:16:00.952Z,8.13
2018-03-01T02:18:28.516Z,7.77
2018-03-01T02:20:56.094Z,8.40
2018-03-01T02:23:23.650Z,7.57
2018-03-01T02:25:51.986Z,7.37
2018-03-01T02:28:19.544Z,6.87
2018-03-01T02:30:47.118Z,7.70
2018-03-01T02:33:15.444Z,7.30
2018-03-01T02:35:43.041Z,7.57
2018-03-01T02:38:10.601Z,7.53
2018-03-01T02:40:38.537Z,7.28
2018-03-01T02:43:06.157Z,7.90
2018-03-01T02:45:34.584Z,7.47
2018-03-01T02:48:02.136Z,7.63
2018-03-01T02:50:29.688Z,7.70
2018-03-01T02:52:57.249Z,7.23
2018-03-01T02:55:24.804Z,7.15
2018-03-01T02:57:53.132Z,7.60
2018-03-01T03:00:20.696Z,8.20
2018-03-01T03:02:48.315Z,8.07
2018-03-01T03:05:15.868Z,7.13
2018-03-01T03:07:43.464Z,7.20
2018-03-01T03:10:11.088Z,6.80
2018-03-01T03:12:39.336Z,7.47
2018-03-01T03:15:08.485Z,7.00
2018-03-01T03:17:36.054Z,7.20
2018-03-01T03:20:03.634Z,7.22
2018-03-01T03:22:31.995Z,7.30
2018-03-01T03:24:59.572Z,5.62
2018-03-01T03:27:27.132Z,7.13
2018-03-01T03:29:54.697Z,7.55
2018-03-01T03:32:23.042Z,7.40
2018-03-01T03:34:50.650Z,7.40
2018-03-01T03:37:18.209Z,7.90
2018-03-01T03:39:45.779Z,7.07
2018-03-01T03:42:13.334Z,8.03
2018-03-01T03:44:40.905Z,7.40
2018-03-01T03:47:09.226Z,6.93
2018-03-01T03:49:36.790Z,7.53
2018-03-01T03:52:04.569Z,7.63
2018-03-01T03:54:32.921Z,7.72
2018-03-01T03:57:00.477Z,6.53
2018-03-01T03:59:28.864Z,7.60
2018-03-01T04:01:56.474Z,5.90
2018-03-01T04:04:24.033Z,6.10
2018-03-01T04:06:52.365Z,6.03
2018-03-01T04:09:19.917Z,7.80
2018-03-01T04:11:47.485Z,6.30
2018-03-01T04:14:15.817Z,7.20
2018-03-01T04:16:43.392Z,7.57
2018-03-01T04:19:11.717Z,6.40
2018-03-01T04:21:39.324Z,7.53
2018-03-01T04:24:06.881Z,7.18
2018-03-01T04:26:34.475Z,8.13
2018-03-01T04:29:02.034Z,8.82
2018-03-01T04:31:30.453Z,7.17
2018-03-01T04:33:58.047Z,7.45
2018-03-01T04:36:26.368Z,8.57
2018-03-01T04:38:53.909Z,7.70
2018-03-01T04:41:21.435Z,8.73
2018-03-01T04:43:49.033Z,7.70
2018-03-01T04:46:17.353Z,7.60
2018-03-01T04:48:44.907Z,8.13
2018-03-01T04:51:12.477Z,8.17
2018-03-01T04:53:40.064Z,7.40
2018-03-01T04:56:07.588Z,6.80
2018-03-01T04:58:35.167Z,8.50
2018-03-01T05:01:02.704Z,6.50
2018-03-01T05:03:30.257Z,7.70
2018-03-01T05:05:58.025Z,9.07
2018-03-01T05:08:25.646Z,8.67
2018-03-01T05:10:53.188Z,7.70
2018-03-01T05:13:20.717Z,9.23
2018-03-01T05:15:48.260Z,9.50
2018-03-01T05:18:15.864Z,9.07
2018-03-01T05:20:43.567Z,8.47
2018-03-01T05:23:11.140Z,8.90
2018-03-01T05:25:38.696Z,10.00
2018-03-01T05:28:06.222Z,8.70
2018-03-01T05:30:35.313Z,8.37
2018-03-01T05:33:02.851Z,8.03
2018-03-01T05:35:31.941Z,9.70
2018-03-01T05:37:59.475Z,8.23
2018-03-01T05:40:27.010Z,8.33
2018-03-01T05:42:54.627Z,8.37
2018-03-01T05:45:22.388Z,9.10
2018-03-01T05:47:50.760Z,8.75
2018-03-01T05:50:18.306Z,8.90
2018-03-01T05:52:45.879Z,8.70
2018-03-01T05:55:13.434Z,6.87
2018-03-01T05:57:40.961Z,9.63
2018-03-01T06:00:08.525Z,9.70
2018-03-01T06:02:36.105Z,7.30
2018-03-01T06:05:03.643Z,7.53
2018-03-01T06:07:31.957Z,8.87
2018-03-01T06:09:59.513Z,10.77
2018-03-01T06:12:27.094Z,9.63
2018-03-01T06:14:54.629Z,6.53
2018-03-01T06:17:22.984Z,8.90
2018-03-01T06:19:51.281Z,8.30
2018-03-01T06:22:18.825Z,8.30
2018-03-01T06:24:46.368Z,8.07
2018-03-01T06:27:13.886Z,9.23
2018-03-01T06:29:42.209Z,8.47
2018-03-01T06:32:09.753Z,10.20
2018-03-01T06:34:37.321Z,8.53
2018-03-01T06:37:04.863Z,7.90
2018-03-01T06:39:33.165Z,7.37
2018-03-01T06:42:00.717Z,8.50
2018-03-01T06:44:28.266Z,10.40
2018-03-01T06:46:55.827Z,11.43
2018-03-01T06:49:23.391Z,13.17
2018-03-01T06:51:51.020Z,13.27
2018-03-01T06:54:18.659Z,10.60
2018-03-01T06:56:46.266Z,13.07
2018-03-01T06:59:14.586Z,14.17
2018-03-01T07:01:42.126Z,11.87
2018-03-01T07:04:09.673Z,12.60
2018-03-01T07:06:37.205Z,11.03
2018-03-01T07:09:04.775Z,11.95
2018-03-01T07:11:32.376Z,11.07
2018-03-01T07:14:00.646Z,10.52
2018-03-01T07:16:28.196Z,12.27
2018-03-01T07:18:55.738Z,11.70
2018-03-01T07:21:23.308Z,10.20
2018-03-01T07:23:50.868Z,10.37
2018-03-01T07:26:18.419Z,10.10
2018-03-01T07:28:45.932Z,9.27
2018-03-01T07:31:13.452Z,10.60
2018-03-01T07:33:41.128Z,10.37
2018-03-01T07:36:08.654Z,10.90
2018-03-01T07:38:36.997Z,8.13
2018-03-01T07:41:04.541Z,8.60
2018-03-01T07:43:32.085Z,11.50
2018-03-01T07:45:59.621Z,11.00
2018-03-01T07:48:27.149Z,9.10
2018-03-01T07:50:55.460Z,10.30
2018-03-01T07:53:23.829Z,11.27
2018-03-01T07:55:51.405Z,11.17
2018-03-01T07:58:18.923Z,11.17
2018-03-01T08:00:46.471Z,13.13
2018-03-01T08:03:14.006Z,11.17
2018-03-01T08:05:41.527Z,10.80
2018-03-01T08:08:09.072Z,11.37
2018-03-01T08:10:36.605Z,11.60
2018-03-01T08:13:04.169Z,12.70
2018-03-01T08:15:31.698Z,12.50
2018-03-01T08:17:59.249Z,11.63
2018-03-01T08:20:26.786Z,12.83
2018-03-01T08:22:54.311Z,12.07
2018-03-01T08:25:22.709Z,13.07
2018-03-01T08:27:50.217Z,11.55
2018-03-01T08:30:18.527Z,11.00
2018-03-01T08:32:46.357Z,10.20
2018-03-01T08:35:13.919Z,10.63
2018-03-01T08:37:41.462Z,11.40
2018-03-01T08:40:09.014Z,11.07
2018-03-01T08:42:36.527Z,8.67
2018-03-01T08:45:04.069Z,11.03
2018-03-01T08:50:13.805Z,10.30
2018-03-01T08:52:41.349Z,9.30
2018-03-01T08:55:08.934Z,12.60
2018-03-01T08:57:36.479Z,12.63
2018-03-01T09:00:04.005Z,10.95
2018-03-01T09:02:31.581Z,10.40
2018-03-01T09:04:59.147Z,10.05
2018-03-01T09:07:26.715Z,7.20
2018-03-01T09:09:54.279Z,10.50
2018-03-01T09:12:21.861Z,11.20
2018-03-01T09:14:49.369Z,8.68
2018-03-01T09:17:16.897Z,11.40
2018-03-01T09:19:44.444Z,8.77
2018-03-01T09:22:11.977Z,8.80
2018-03-01T09:24:39.524Z,9.88
2018-03-01T09:27:07.090Z,9.87
2018-03-01T09:29:34.657Z,9.37
2018-03-01T09:32:02.228Z,7.90
2018-03-01T09:34:29.881Z,11.03
2018-03-01T09:36:58.229Z,10.20
2018-03-01T09:39:25.764Z,10.07
2018-03-01T09:41:53.283Z,10.70
2018-03-01T09:44:20.892Z,10.93
2018-03-01T09:46:49.696Z,8.27
2018-03-01T09:49:17.221Z,11.60
2018-03-01T09:51:44.784Z,11.37
2018-03-01T09:54:12.317Z,10.00
2018-03-01T09:56:40.329Z,12.57
2018-03-01T09:59:08.666Z,10.37
2018-03-01T10:01:36.194Z,10.27
2018-03-01T10:04:03.791Z,10.50
2018-03-01T10:06:32.093Z,10.10
2018-03-01T10:08:59.658Z,11.60
2018-03-01T10:11:27.212Z,9.60
2018-03-01T10:13:54.751Z,10.40
2018-03-01T10:16:22.326Z,9.70
2018-03-01T10:18:50.825Z,11.00
2018-03-01T10:21:18.390Z,10.97
2018-03-01T10:23:45.922Z,11.67
2018-03-01T10:26:13.494Z,12.03
2018-03-01T10:28:41.027Z,11.10
2018-03-01T10:31:08.542Z,11.50
2018-03-01T10:33:41.777Z,12.97
2018-03-01T10:36:09.305Z,11.70
2018-03-01T10:38:36.855Z,10.67
2018-03-01T10:41:04.385Z,10.00
2018-03-01T10:43:31.929Z,9.77
2018-03-01T10:45:59.688Z,11.10
2018-03-01T10:48:27.212Z,11.23
2018-03-01T10:50:54.762Z,8.32
2018-03-01T10:53:22.293Z,11.13
2018-03-01T10:55:49.872Z,11.60
2018-03-01T10:58:17.400Z,10.00
2018-03-01T11:00:44.961Z,9.10
2018-03-01T11:03:12.505Z,8.43
2018-03-01T11:05:40.039Z,9.70
2018-03-01T11:08:07.598Z,9.50
2018-03-01T11:10:35.146Z,10.20
2018-03-01T11:13:02.684Z,9.80
2018-03-01T11:15:30.210Z,13.73
2018-03-01T11:17:57.785Z,13.30
2018-03-01T11:20:25.498Z,13.73
2018-03-01T11:22:53.035Z,13.47
2018-03-01T11:25:20.591Z,9.87
2018-03-01T11:27:48.103Z,11.60
2018-03-01T11:30:15.633Z,9.20
2018-03-01T11:32:43.921Z,9.90
2018-03-01T11:35:11.477Z,10.37
2018-03-01T11:37:39.043Z,9.57
2018-03-01T11:40:06.575Z,10.60
2018-03-01T11:42:34.121Z,13.15
2018-03-01T11:45:01.670Z,11.43
2018-03-01T11:47:29.227Z,10.40
2018-03-01T11:49:56.769Z,11.57
2018-03-01T11:52:24.407Z,11.65
2018-03-01T11:54:53.150Z,11.27
2018-03-01T11:57:20.825Z,10.47
2018-03-01T11:59:48.390Z,11.90
2018-03-01T12:02:16.691Z,10.67
2018-03-01T12:04:45.017Z,9.17
2018-03-01T12:07:12.549Z,12.02
2018-03-01T12:09:40.120Z,11.20
2018-03-01T12:12:08.421Z,10.87
2018-03-01T12:14:35.980Z,11.30
2018-03-01T12:17:03.523Z,10.60
2018-03-01T12:19:31.050Z,9.63
2018-03-01T12:21:58.609Z,10.07
2018-03-01T12:24:26.125Z,5.57
2018-03-01T12:26:53.673Z,7.10
2018-03-01T12:29:21.197Z,9.50
2018-03-01T12:31:48.730Z,9.80
2018-03-01T12:34:17.042Z,8.43
2018-03-01T12:36:44.569Z,9.73
2018-03-01T12:39:12.130Z,13.10
2018-03-01T12:41:39.662Z,8.82
2018-03-01T12:44:07.214Z,9.60
2018-03-01T12:46:34.802Z,10.53
2018-03-01T12:49:02.619Z,10.20
2018-03-01T12:51:30.274Z,9.60
2018-03-01T12:53:57.796Z,9.43
2018-03-01T12:56:25.324Z,9.10
2018-03-01T12:58:52.856Z,8.30
2018-03-01T13:01:20.443Z,9.67
2018-03-01T13:03:47.955Z,8.37
2018-03-01T13:06:15.498Z,9.40
2018-03-01T13:08:43.061Z,6.83
2018-03-01T13:11:10.589Z,9.23
2018-03-01T13:13:38.136Z,9.37
2018-03-01T13:16:05.665Z,10.68
2018-03-01T13:18:34.120Z,10.30
2018-03-01T13:21:02.403Z,7.50
2018-03-01T13:23:30.118Z,10.45
2018-03-01T13:25:57.703Z,8.63
2018-03-01T13:28:25.232Z,10.17
2018-03-01T13:30:58.433Z,10.67
2018-03-01T13:33:26.005Z,9.53
2018-03-01T13:35:53.593Z,11.30
2018-03-01T13:38:21.913Z,9.83
2018-03-01T13:40:49.473Z,11.70
2018-03-01T13:43:31.880Z,8.97
2018-03-01T13:46:01.793Z,11.02
2018-03-01T13:48:30.296Z,10.37
2018-03-01T13:50:57.823Z,11.17
2018-03-01T13:53:25.374Z,9.90
2018-03-01T13:55:52.900Z,10.80
2018-03-01T13:58:20.445Z,10.50
2018-03-01T14:00:47.967Z,11.50
2018-03-01T14:03:16.282Z,10.80
2018-03-01T14:09:03.213Z,11.20
2018-03-01T14:11:30.744Z,12.20
2018-03-01T14:14:10.011Z,11.07
2018-03-01T14:16:37.550Z,12.20
2018-03-01T14:19:09.487Z,13.60
2018-03-01T14:21:41.611Z,13.05
2018-03-01T14:24:10.773Z,10.88
2018-03-01T14:29:39.829Z,11.00
2018-03-01T14:32:07.359Z,12.37
2018-03-01T14:34:34.934Z,11.53
2018-03-01T14:37:02.461Z,10.30
2018-03-01T14:39:30.012Z,12.40
2018-03-01T14:41:57.561Z,10.70
2018-03-01T14:44:25.089Z,10.13
2018-03-01T14:46:52.632Z,10.57
2018-03-01T14:49:20.153Z,11.40
2018-03-01T14:51:48.590Z,12.05
2018-03-01T14:54:16.113Z,12.87
2018-03-01T14:56:44.130Z,10.73
2018-03-01T14:59:11.709Z,13.00
2018-03-01T15:01:39.264Z,11.07
2018-03-01T15:04:06.807Z,11.00
2018-03-01T15:06:34.347Z,9.33
2018-03-01T15:09:01.932Z,8.90
2018-03-01T15:11:30.321Z,11.87
2018-03-01T15:13:57.862Z,14.17
2018-03-01T15:16:25.707Z,12.68
2018-03-01T15:18:53.260Z,13.03
2018-03-01T15:21:20.826Z,10.53
2018-03-01T15:23:48.390Z,9.83
2018-03-01T15:26:15.955Z,11.90
2018-03-01T15:28:43.499Z,11.80
2018-03-01T15:31:11.051Z,12.50
2018-03-01T15:33:38.576Z,8.77
2018-03-01T15:36:06.090Z,12.00
2018-03-01T15:38:33.661Z,12.03
2018-03-01T15:41:01.223Z,11.37
2018-03-01T15:43:28.781Z,12.50
2018-03-01T15:45:56.313Z,13.63
2018-03-01T15:48:23.853Z,9.93
2018-03-01T15:50:51.394Z,11.12
2018-03-01T15:53:18.918Z,9.87
2018-03-01T15:55:46.466Z,12.60
2018-03-01T15:58:14.061Z,13.30
2018-03-01T16:00:42.380Z,12.68
2018-03-01T16:03:09.958Z,11.70
2018-03-01T16:05:38.294Z,12.00
2018-03-01T16:08:05.834Z,12.97
2018-03-01T16:10:33.368Z,13.13
2018-03-01T16:13:00.899Z,10.80
2018-03-01T16:15:28.660Z,10.57
2018-03-01T16:17:56.196Z,11.20
2018-03-01T16:20:23.797Z,10.70
2018-03-01T16:22:51.370Z,11.50
2018-03-01T16:25:18.901Z,12.37
2018-03-01T16:27:47.226Z,12.27
2018-03-01T16:30:14.768Z,10.10
2018-03-01T16:32:42.325Z,10.98
2018-03-01T16:35:09.917Z,12.20
2018-03-01T16:37:37.453Z,11.27
2018-03-01T16:40:05.008Z,10.77
2018-03-01T16:42:32.652Z,11.50
2018-03-01T16:45:00.200Z,12.30
2018-03-01T16:47:27.749Z,13.90
2018-03-01T16:49:55.301Z,11.80
2018-03-01T16:52:22.816Z,10.80
2018-03-01T16:54:50.377Z,12.13
2018-03-01T16:57:17.920Z,13.50
2018-03-01T16:59:45.432Z,12.57
2018-03-01T17:02:12.989Z,11.57
2018-03-01T17:04:40.521Z,11.43
2018-03-01T17:07:08.873Z,12.97
2018-03-01T17:09:37.213Z,12.60
2018-03-01T17:12:04.741Z,13.60
2018-03-01T17:14:32.576Z,12.20
2018-03-01T17:17:01.053Z,13.20
2018-03-01T17:19:28.601Z,12.30
2018-03-01T17:21:56.149Z,11.83
2018-03-01T17:24:23.702Z,12.30
2018-03-01T17:26:55.049Z,13.47
2018-03-01T17:29:23.408Z,11.27
2018-03-01T17:31:51.542Z,13.20
2018-03-01T17:36:53.938Z,10.73
2018-03-01T17:39:21.470Z,13.40
2018-03-01T17:41:49.012Z,14.30
2018-03-01T17:44:16.703Z,11.27
2018-03-01T17:46:44.355Z,11.50
2018-03-01T17:49:12.749Z,13.67
2018-03-01T17:51:40.274Z,13.53
2018-03-01T17:54:07.867Z,12.80
2018-03-01T17:56:35.408Z,12.60
2018-03-01T17:59:02.962Z,12.77
2018-03-01T18:01:31.247Z,13.13
2018-03-01T18:03:59.587Z,12.37
2018-03-01T18:06:27.143Z,12.93
2018-03-01T18:08:55.449Z,13.32
2018-03-01T18:11:23.064Z,14.03
2018-03-01T18:13:50.607Z,14.43
2018-03-01T18:16:18.173Z,13.85
2018-03-01T18:18:45.701Z,13.27
2018-03-01T18:21:13.326Z,14.03
2018-03-01T18:23:41.638Z,11.90
2018-03-01T18:26:09.177Z,12.27
2018-03-01T18:28:36.742Z,12.37
2018-03-01T18:31:04.264Z,14.25
2018-03-01T18:33:31.813Z,14.03
2018-03-01T18:35:59.341Z,13.48
2018-03-01T18:38:27.735Z,13.00
2018-03-01T18:40:55.263Z,14.17
2018-03-01T18:43:22.785Z,14.53
2018-03-01T18:45:50.518Z,13.77
2018-03-01T18:48:18.823Z,14.40
2018-03-01T18:50:46.363Z,15.17
2018-03-01T18:53:13.903Z,11.93
2018-03-01T18:55:41.462Z,12.70
2018-03-01T18:58:09.093Z,12.47
2018-03-01T19:00:36.669Z,10.48
2018-03-01T19:03:04.237Z,11.67
2018-03-01T19:05:32.572Z,12.97
2018-03-01T19:08:00.442Z,13.67
2018-03-01T19:10:28.017Z,13.05
2018-03-01T19:12:55.621Z,13.30
2018-03-01T19:15:23.159Z,13.67
2018-03-01T19:17:50.764Z,14.13
2018-03-01T19:20:18.286Z,13.83
2018-03-01T19:22:46.593Z,12.73
2018-03-01T19:25:14.145Z,14.47
2018-03-01T19:27:41.660Z,12.30
2018-03-01T19:30:09.288Z,15.53
2018-03-01T19:32:36.805Z,18.00
2018-03-01T19:35:04.355Z,15.50
2018-03-01T19:37:33.424Z,13.93
2018-03-01T19:40:00.953Z,15.53
2018-03-01T19:42:28.493Z,15.07
2018-03-01T19:44:56.031Z,14.87
2018-03-01T19:47:23.589Z,14.37
2018-03-01T19:49:51.151Z,13.90
2018-03-01T19:52:18.691Z,15.52
2018-03-01T19:54:46.244Z,13.77
2018-03-01T19:57:13.805Z,13.95
2018-03-01T19:59:42.111Z,12.73
2018-03-01T20:02:09.638Z,15.23
2018-03-01T20:04:37.209Z,17.90
2018-03-01T20:07:04.746Z,12.80
2018-03-01T20:09:32.281Z,14.50
2018-03-01T20:11:59.837Z,13.70
2018-03-01T20:14:27.384Z,14.07
2018-03-01T20:16:54.941Z,13.93
2018-03-01T20:19:22.724Z,16.37
2018-03-01T20:21:51.062Z,13.37
2018-03-01T20:24:18.658Z,14.70
2018-03-01T20:26:46.211Z,13.23
2018-03-01T20:29:14.759Z,15.77
2018-03-01T20:31:42.400Z,12.10
2018-03-01T20:34:10.752Z,13.98
2018-03-01T20:39:22.673Z,16.62
2018-03-01T20:41:50.239Z,14.07
2018-03-01T20:44:17.859Z,16.10
2018-03-01T20:46:46.444Z,16.53
2018-03-01T20:49:13.980Z,14.77
2018-03-01T20:51:41.777Z,15.73
2018-03-01T20:54:09.306Z,17.10
2018-03-01T20:56:36.865Z,15.03
2018-03-01T20:59:04.413Z,14.67
2018-03-01T21:01:31.973Z,14.27
2018-03-01T21:04:00.411Z,16.17
2018-03-01T21:06:27.954Z,14.97
2018-03-01T21:08:55.682Z,14.77
2018-03-01T21:11:23.205Z,13.27
2018-03-01T21:13:50.739Z,17.40
2018-03-01T21:16:18.341Z,15.27
2018-03-01T21:18:45.892Z,14.17
2018-03-01T21:21:14.268Z,15.27
2018-03-01T21:23:42.580Z,15.57
2018-03-01T21:26:10.180Z,17.60
2018-03-01T21:28:39.478Z,16.30
2018-03-01T21:31:07.025Z,17.77
2018-03-01T21:33:34.590Z,21.17
2018-03-01T21:36:02.138Z,12.57
2018-03-01T21:38:29.676Z,14.00
2018-03-01T21:40:57.239Z,16.40
2018-03-01T21:43:24.813Z,15.20
2018-03-01T21:45:52.354Z,19.17
2018-03-01T21:48:21.411Z,16.60
2018-03-01T21:50:48.946Z,12.97
2018-03-01T21:53:16.493Z,18.53
2018-03-01T21:55:44.041Z,13.60
2018-03-01T21:58:11.560Z,17.50
2018-03-01T22:00:39.111Z,17.23
2018-03-01T22:03:07.570Z,15.50
2018-03-01T22:05:35.153Z,17.07
2018-03-01T22:08:02.682Z,16.52
2018-03-01T22:10:30.237Z,16.43
2018-03-01T22:12:57.775Z,15.23
2018-03-01T22:15:25.328Z,19.20
2018-03-01T22:17:52.876Z,17.37
2018-03-01T22:20:20.400Z,18.10
2018-03-01T22:22:48.017Z,18.30
2018-03-01T22:25:15.716Z,15.83
2018-03-01T22:27:43.264Z,18.73
2018-03-01T22:30:10.805Z,16.87
2018-03-01T22:32:39.143Z,16.77
2018-03-01T22:35:06.734Z,17.40
2018-03-01T22:37:34.261Z,16.50
2018-03-01T22:40:01.834Z,12.37
2018-03-01T22:42:30.158Z,16.87
2018-03-01T22:44:59.187Z,16.10
2018-03-01T22:47:26.923Z,16.20
2018-03-01T22:49:55.852Z,14.33
2018-03-01T22:52:24.299Z,15.43
2018-03-01T22:54:51.818Z,15.68
2018-03-01T22:57:20.144Z,13.53
2018-03-01T22:59:47.884Z,11.27
2018-03-01T23:02:15.443Z,15.47
2018-03-01T23:04:43.069Z,15.95
2018-03-01T23:07:10.635Z,16.10
2018-03-01T23:09:38.165Z,13.98
2018-03-01T23:12:05.720Z,16.73
2018-03-01T23:14:33.350Z,12.57
2018-03-01T23:17:00.874Z,14.40
2018-03-01T23:19:28.454Z,14.73
2018-03-01T23:21:56.039Z,14.57
2018-03-01T23:24:23.618Z,15.30
2018-03-01T23:26:51.187Z,16.10
2018-03-01T23:29:19.579Z,13.70
2018-03-01T23:31:47.884Z,15.47
2018-03-01T23:34:15.430Z,14.50
2018-03-01T23:36:45.016Z,12.73
2018-03-01T23:39:13.934Z,14.90
2018-03-01T23:41:41.485Z,15.37
2018-03-01T23:44:09.036Z,16.40
2018-03-01T23:46:37.415Z,14.93
2018-03-01T23:49:04.941Z,14.57
2018-03-01T23:51:33.347Z,14.23
2018-03-01T23:54:00.906Z,12.00
2018-03-01T23:56:28.508Z,15.67
2018-03-01T23:58:56.827Z,16.73
